createdAt,value
2019-06-26T00:01:13.897Z,21.97
2019-06-26T00:03:34.428Z,21.97
2019-06-26T00:05:57.099Z,22.20
2019-06-26T00:08:19.015Z,21.93
2019-06-26T00:10:39.392Z,22.97
2019-06-26T00:12:59.626Z,23.60
2019-06-26T00:15:19.946Z,22.30
2019-06-26T00:17:40.212Z,23.20
2019-06-26T00:20:00.454Z,23.50
2019-06-26T00:22:20.809Z,23.03
2019-06-26T00:24:41.095Z,23.60
2019-06-26T00:27:01.432Z,21.90
2019-06-26T00:29:21.632Z,23.23
2019-06-26T00:31:41.997Z,22.63
2019-06-26T00:34:02.499Z,23.23
2019-06-26T00:36:23.700Z,22.10
2019-06-26T00:38:43.965Z,22.53
2019-06-26T00:41:05.162Z,22.77
2019-06-26T00:43:38.481Z,22.33
2019-06-26T00:45:47.449Z,22.60
2019-06-26T00:48:07.766Z,22.77
2019-06-26T00:50:29.479Z,21.73
2019-06-26T00:52:49.737Z,21.90
2019-06-26T00:55:10.112Z,23.57
2019-06-26T00:57:30.526Z,22.43
2019-06-26T00:59:53.684Z,21.97
2019-06-26T01:02:13.962Z,22.67
2019-06-26T01:04:35.904Z,22.37
2019-06-26T01:06:57.044Z,21.90
2019-06-26T01:09:16.958Z,22.02
2019-06-26T01:11:36.949Z,20.32
2019-06-26T01:13:58.270Z,20.62
2019-06-26T01:16:18.567Z,21.27
2019-06-26T01:18:38.718Z,20.75
2019-06-26T01:20:58.961Z,20.47
2019-06-26T01:23:19.211Z,20.53
2019-06-26T01:25:39.511Z,21.47
2019-06-26T01:27:59.766Z,21.13
2019-06-26T01:30:20.215Z,21.73
2019-06-26T01:32:40.475Z,20.13
2019-06-26T01:35:00.721Z,22.43
2019-06-26T01:37:21.029Z,23.00
2019-06-26T01:39:41.303Z,23.00
2019-06-26T01:42:01.549Z,23.03
2019-06-26T01:44:21.786Z,23.00
2019-06-26T01:46:42.018Z,23.83
2019-06-26T01:49:02.529Z,23.77
2019-06-26T01:51:22.848Z,24.00
2019-06-26T01:53:43.049Z,24.53
2019-06-26T01:56:03.209Z,23.57
2019-06-26T01:58:23.419Z,23.90
2019-06-26T02:00:43.689Z,22.63
2019-06-26T02:03:04.030Z,24.60
2019-06-26T02:05:24.323Z,23.20
2019-06-26T02:07:44.665Z,22.67
2019-06-26T02:10:06.646Z,21.17
2019-06-26T02:12:26.971Z,21.63
2019-06-26T02:14:47.214Z,21.63
2019-06-26T02:17:07.579Z,21.80
2019-06-26T02:19:27.835Z,22.20
2019-06-26T02:21:49.625Z,23.27
2019-06-26T02:24:09.921Z,21.93
2019-06-26T02:26:30.262Z,23.27
2019-06-26T02:28:50.863Z,22.63
2019-06-26T02:31:11.953Z,23.13
2019-06-26T02:33:32.178Z,23.60
2019-06-26T02:35:55.476Z,23.67
2019-06-26T02:38:15.700Z,23.13
2019-06-26T02:40:37.965Z,22.13
2019-06-26T02:42:58.178Z,23.93
2019-06-26T02:45:18.736Z,23.07
2019-06-26T02:47:39.082Z,22.40
2019-06-26T02:49:59.340Z,22.70
2019-06-26T02:52:20.564Z,23.27
2019-06-26T02:54:40.850Z,24.60
2019-06-26T02:57:01.159Z,24.53
2019-06-26T02:59:21.484Z,24.93
2019-06-26T03:01:42.064Z,25.63
2019-06-26T03:04:02.405Z,25.57
2019-06-26T03:06:23.588Z,24.10
2019-06-26T03:08:44.086Z,23.37
2019-06-26T03:11:04.482Z,21.57
2019-06-26T03:13:24.834Z,22.17
2019-06-26T03:15:45.031Z,23.37
2019-06-26T03:18:05.555Z,22.13
2019-06-26T03:20:28.895Z,22.70
2019-06-26T03:22:49.124Z,23.17
2019-06-26T03:25:10.125Z,22.23
2019-06-26T03:27:30.481Z,23.70
2019-06-26T03:29:50.723Z,22.63
2019-06-26T03:32:11.061Z,22.13
2019-06-26T03:34:31.334Z,23.33
2019-06-26T03:36:51.557Z,22.17
2019-06-26T03:39:11.839Z,24.27
2019-06-26T03:41:32.112Z,24.77
2019-06-26T03:43:52.453Z,22.77
2019-06-26T03:46:12.704Z,23.83
2019-06-26T03:48:34.593Z,23.60
2019-06-26T03:50:54.857Z,23.70
2019-06-26T03:53:15.159Z,22.17
2019-06-26T03:55:36.454Z,21.57
2019-06-26T03:57:56.781Z,23.47
2019-06-26T04:00:20.158Z,22.73
2019-06-26T04:02:40.387Z,22.20
2019-06-26T04:05:00.708Z,23.20
2019-06-26T04:07:20.967Z,22.23
2019-06-26T04:09:41.305Z,22.60
2019-06-26T04:12:03.774Z,21.43
2019-06-26T04:14:23.656Z,20.03
2019-06-26T04:16:44.925Z,21.30
2019-06-26T04:19:05.269Z,21.53
2019-06-26T04:21:25.664Z,20.57
2019-06-26T04:23:45.911Z,21.23
2019-06-26T04:26:07.736Z,20.80
2019-06-26T04:28:27.952Z,20.07
2019-06-26T04:30:48.196Z,20.80
2019-06-26T04:33:08.544Z,20.37
2019-06-26T04:35:29.454Z,21.97
2019-06-26T04:37:49.790Z,21.60
2019-06-26T04:40:10.897Z,21.37
2019-06-26T04:42:31.136Z,20.40
2019-06-26T04:44:51.473Z,21.40
2019-06-26T04:47:11.648Z,21.37
2019-06-26T04:49:31.948Z,21.90
2019-06-26T04:51:52.209Z,21.97
2019-06-26T04:54:12.483Z,21.63
2019-06-26T04:56:32.731Z,21.63
2019-06-26T04:58:52.999Z,21.30
2019-06-26T05:01:14.335Z,21.73
2019-06-26T05:03:34.581Z,20.80
2019-06-26T05:05:55.004Z,21.37
2019-06-26T05:08:15.259Z,21.43
2019-06-26T05:10:35.609Z,20.90
2019-06-26T05:12:55.803Z,21.23
2019-06-26T05:15:16.336Z,21.43
2019-06-26T05:17:36.614Z,21.50
2019-06-26T05:19:57.014Z,20.93
2019-06-26T05:22:17.260Z,20.10
2019-06-26T05:24:38.557Z,20.87
2019-06-26T05:26:58.788Z,19.97
2019-06-26T05:29:19.063Z,19.60
2019-06-26T05:31:39.303Z,19.60
2019-06-26T05:33:59.630Z,20.17
2019-06-26T05:36:19.974Z,19.07
2019-06-26T05:38:40.255Z,19.87
2019-06-26T05:41:00.489Z,18.60
2019-06-26T05:43:20.820Z,18.90
2019-06-26T05:45:41.094Z,18.70
2019-06-26T05:48:01.549Z,18.53
2019-06-26T05:50:22.136Z,18.70
2019-06-26T05:52:43.144Z,18.00
2019-06-26T05:55:03.915Z,18.07
2019-06-26T05:57:24.174Z,17.97
2019-06-26T05:59:44.420Z,18.70
2019-06-26T06:02:04.837Z,18.00
2019-06-26T06:04:25.108Z,17.83
2019-06-26T06:06:45.379Z,17.43
2019-06-26T06:09:06.553Z,17.67
2019-06-26T06:11:26.959Z,17.53
2019-06-26T06:13:47.166Z,17.97
2019-06-26T06:16:07.376Z,17.40
2019-06-26T06:18:27.626Z,16.90
2019-06-26T06:20:47.827Z,16.33
2019-06-26T06:23:08.237Z,17.03
2019-06-26T06:25:28.535Z,16.30
2019-06-26T06:27:49.755Z,17.17
2019-06-26T06:30:11.274Z,17.23
2019-06-26T06:32:31.504Z,18.73
2019-06-26T06:34:51.842Z,17.20
2019-06-26T06:37:12.104Z,16.40
2019-06-26T06:39:32.352Z,16.90
2019-06-26T06:41:59.290Z,16.80
2019-06-26T06:44:19.542Z,16.80
2019-06-26T06:46:39.897Z,16.60
2019-06-26T06:49:00.218Z,15.27
2019-06-26T06:51:21.858Z,15.07
2019-06-26T06:53:42.759Z,15.50
2019-06-26T06:56:03.815Z,14.87
2019-06-26T06:58:24.781Z,15.07
2019-06-26T07:00:45.687Z,13.80
2019-06-26T07:03:06.497Z,13.87
2019-06-26T07:05:27.361Z,12.87
2019-06-26T07:07:48.294Z,12.93
2019-06-26T07:10:09.084Z,12.90
2019-06-26T07:12:31.116Z,12.73
2019-06-26T07:14:52.411Z,13.60
2019-06-26T07:17:20.732Z,13.00
2019-06-26T07:19:35.547Z,13.00
2019-06-26T07:21:55.836Z,12.33
2019-06-26T07:24:15.788Z,11.75
2019-06-26T07:26:35.784Z,11.55
2019-06-26T07:28:55.765Z,11.85
2019-06-26T07:31:15.661Z,11.78
2019-06-26T07:33:36.538Z,11.22
2019-06-26T07:35:56.585Z,10.15
2019-06-26T07:38:17.869Z,10.37
2019-06-26T07:40:38.156Z,10.60
2019-06-26T07:42:58.415Z,9.97
2019-06-26T07:45:23.040Z,10.87
2019-06-26T07:47:43.713Z,10.17
2019-06-26T07:52:22.973Z,8.90
2019-06-26T07:54:42.958Z,8.03
2019-06-26T07:57:03.210Z,8.70
2019-06-26T07:59:23.265Z,8.23
2019-06-26T08:01:43.194Z,8.40
2019-06-26T08:04:03.189Z,8.53
2019-06-26T08:06:23.208Z,8.98
2019-06-26T08:08:43.205Z,8.65
2019-06-26T08:11:06.386Z,8.93
2019-06-26T08:13:25.278Z,8.70
2019-06-26T08:15:45.225Z,8.18
2019-06-26T08:18:05.286Z,9.38
2019-06-26T08:20:25.244Z,8.83
2019-06-26T08:22:45.195Z,8.80
2019-06-26T08:25:08.693Z,8.53
2019-06-26T08:27:28.802Z,8.98
2019-06-26T08:29:48.746Z,8.70
2019-06-26T08:32:08.620Z,9.33
2019-06-26T08:34:28.602Z,9.50
2019-06-26T08:36:48.642Z,9.15
2019-06-26T08:39:08.863Z,8.63
2019-06-26T08:41:29.161Z,8.40
2019-06-26T08:43:49.164Z,8.88
2019-06-26T08:46:09.141Z,8.95
2019-06-26T08:48:39.421Z,8.20
2019-06-26T08:50:51.002Z,8.38
2019-06-26T08:53:11.013Z,8.73
2019-06-26T08:55:31.004Z,8.85
2019-06-26T08:57:51.534Z,8.30
2019-06-26T09:00:12.952Z,8.43
2019-06-26T09:02:33.515Z,7.78
2019-06-26T09:04:53.596Z,7.28
2019-06-26T09:07:13.690Z,7.70
2019-06-26T09:09:34.044Z,6.20
2019-06-26T09:11:54.194Z,5.60
2019-06-26T09:14:14.108Z,4.60
2019-06-26T09:16:34.343Z,5.53
2019-06-26T09:18:54.325Z,5.65
2019-06-26T09:21:14.273Z,5.45
2019-06-26T09:23:34.179Z,5.90
2019-06-26T09:25:54.227Z,6.25
2019-06-26T09:28:14.168Z,5.33
2019-06-26T09:30:34.192Z,4.70
2019-06-26T09:32:54.578Z,5.97
2019-06-26T09:35:15.081Z,5.20
2019-06-26T09:37:35.899Z,5.70
2019-06-26T09:39:56.510Z,5.45
2019-06-26T09:42:19.572Z,5.60
2019-06-26T09:44:38.797Z,4.78
2019-06-26T09:46:58.708Z,4.95
2019-06-26T09:49:18.702Z,5.72
2019-06-26T09:51:38.720Z,5.70
2019-06-26T09:53:59.037Z,6.10
2019-06-26T09:56:19.466Z,5.97
2019-06-26T09:58:39.410Z,5.12
2019-06-26T10:00:59.485Z,5.53
2019-06-26T10:03:19.372Z,5.78
2019-06-26T10:05:39.727Z,5.63
2019-06-26T10:07:59.634Z,5.35
2019-06-26T10:10:19.581Z,4.95
2019-06-26T10:12:39.954Z,5.70
2019-06-26T10:14:59.972Z,4.53
2019-06-26T10:17:19.956Z,4.80
2019-06-26T10:19:39.935Z,4.83
2019-06-26T10:21:59.881Z,4.22
2019-06-26T10:24:19.826Z,4.72
2019-06-26T10:26:39.958Z,4.05
2019-06-26T10:28:59.897Z,4.25
2019-06-26T10:31:19.990Z,4.55
2019-06-26T10:33:40.007Z,4.05
2019-06-26T10:36:00.197Z,4.08
2019-06-26T10:38:20.186Z,3.92
2019-06-26T10:40:40.259Z,4.72
2019-06-26T10:43:00.427Z,4.62
2019-06-26T10:45:20.454Z,4.90
2019-06-26T10:47:40.592Z,4.60
2019-06-26T10:50:00.562Z,4.42
2019-06-26T10:52:20.474Z,4.78
2019-06-26T10:54:44.341Z,4.50
2019-06-26T10:57:03.739Z,4.20
2019-06-26T10:59:23.696Z,4.80
2019-06-26T11:01:43.599Z,4.58
2019-06-26T11:04:04.990Z,4.70
2019-06-26T11:06:25.032Z,4.33
2019-06-26T11:08:45.082Z,4.58
2019-06-26T11:11:05.017Z,4.28
2019-06-26T11:13:24.892Z,4.62
2019-06-26T11:15:44.871Z,4.75
2019-06-26T11:18:04.950Z,5.00
2019-06-26T11:20:25.007Z,5.22
2019-06-26T11:22:45.085Z,5.17
2019-06-26T11:25:06.996Z,5.53
2019-06-26T11:27:27.967Z,5.37
2019-06-26T11:29:47.941Z,4.95
2019-06-26T11:32:09.583Z,5.22
2019-06-26T11:34:29.582Z,5.70
2019-06-26T11:37:03.020Z,6.00
2019-06-26T11:39:11.162Z,4.93
2019-06-26T11:41:31.145Z,4.83
2019-06-26T11:43:51.155Z,5.28
2019-06-26T11:46:11.156Z,4.80
2019-06-26T11:48:31.167Z,4.70
2019-06-26T11:50:51.115Z,4.80
2019-06-26T11:53:11.094Z,4.50
2019-06-26T11:55:31.188Z,4.20
2019-06-26T11:57:51.523Z,4.40
2019-06-26T12:00:16.826Z,4.53
2019-06-26T12:02:36.772Z,3.90
2019-06-26T12:04:57.084Z,4.60
2019-06-26T12:07:17.296Z,4.13
2019-06-26T12:09:37.221Z,4.33
2019-06-26T12:11:57.311Z,3.90
2019-06-26T12:14:17.185Z,4.40
2019-06-26T12:16:37.254Z,4.45
2019-06-26T12:18:57.306Z,4.80
2019-06-26T12:21:17.252Z,4.80
2019-06-26T12:23:37.202Z,4.60
2019-06-26T12:25:57.394Z,4.75
2019-06-26T12:28:17.336Z,4.60
2019-06-26T12:30:37.359Z,4.35
2019-06-26T12:33:03.223Z,4.22
2019-06-26T12:35:19.045Z,4.23
2019-06-26T12:37:39.023Z,4.55
2019-06-26T12:39:58.998Z,4.90
2019-06-26T12:42:18.967Z,3.90
2019-06-26T12:44:38.988Z,4.08
2019-06-26T12:46:58.961Z,3.98
2019-06-26T12:49:18.953Z,4.15
2019-06-26T12:51:38.898Z,4.25
2019-06-26T12:53:59.849Z,3.92
2019-06-26T12:56:19.796Z,4.25
2019-06-26T12:58:39.896Z,4.45
2019-06-26T13:00:59.874Z,4.60
2019-06-26T13:03:19.864Z,4.17
2019-06-26T13:05:39.766Z,4.85
2019-06-26T13:08:00.041Z,4.30
2019-06-26T13:10:20.420Z,4.30
2019-06-26T13:12:40.467Z,4.70
2019-06-26T13:15:00.407Z,4.35
2019-06-26T13:17:21.560Z,4.97
2019-06-26T13:19:41.538Z,4.80
2019-06-26T13:22:01.817Z,5.13
2019-06-26T13:24:21.779Z,4.87
2019-06-26T13:26:41.830Z,4.15
2019-06-26T13:29:01.727Z,5.00
2019-06-26T13:31:21.949Z,4.87
2019-06-26T13:33:41.928Z,5.00
2019-06-26T13:36:02.116Z,4.90
2019-06-26T13:38:22.052Z,4.92
2019-06-26T13:40:42.028Z,5.10
2019-06-26T13:43:02.191Z,5.37
2019-06-26T13:45:22.158Z,5.60
2019-06-26T13:47:42.281Z,5.12
2019-06-26T13:50:02.914Z,5.35
2019-06-26T13:52:22.987Z,6.00
2019-06-26T13:54:42.901Z,4.85
2019-06-26T13:57:02.805Z,5.20
2019-06-26T13:59:22.766Z,5.22
2019-06-26T14:01:42.728Z,5.33
2019-06-26T14:04:02.633Z,5.40
2019-06-26T14:06:22.622Z,5.30
2019-06-26T14:08:42.555Z,4.85
2019-06-26T14:11:02.864Z,4.90
2019-06-26T14:13:22.981Z,5.22
2019-06-26T14:15:43.061Z,5.22
2019-06-26T14:18:03.016Z,4.78
2019-06-26T14:20:24.185Z,5.33
2019-06-26T14:22:44.200Z,4.70
2019-06-26T14:25:06.329Z,5.10
2019-06-26T14:27:26.672Z,5.47
2019-06-26T14:29:46.655Z,4.67
2019-06-26T14:32:06.827Z,5.33
2019-06-26T14:34:27.980Z,4.90
2019-06-26T14:36:49.246Z,5.30
2019-06-26T14:39:09.352Z,5.10
2019-06-26T14:41:29.328Z,5.03
2019-06-26T14:43:49.290Z,5.05
2019-06-26T14:46:09.264Z,5.00
2019-06-26T14:48:29.357Z,5.50
2019-06-26T14:50:49.328Z,5.20
2019-06-26T14:53:09.199Z,5.20
2019-06-26T14:55:29.124Z,4.92
2019-06-26T14:57:49.134Z,4.42
2019-06-26T15:00:09.925Z,4.80
2019-06-26T15:02:31.879Z,5.10
2019-06-26T15:04:51.723Z,4.95
2019-06-26T15:07:11.702Z,4.60
2019-06-26T15:09:31.766Z,4.78
2019-06-26T15:11:51.713Z,4.40
2019-06-26T15:14:11.677Z,5.12
2019-06-26T15:16:31.720Z,4.80
2019-06-26T15:18:51.699Z,4.70
2019-06-26T15:21:11.674Z,4.67
2019-06-26T15:23:31.638Z,4.87
2019-06-26T15:25:51.717Z,5.20
2019-06-26T15:28:11.744Z,4.80
2019-06-26T15:30:31.777Z,5.37
2019-06-26T15:32:51.761Z,5.35
2019-06-26T15:35:11.965Z,5.15
2019-06-26T15:37:31.969Z,5.00
2019-06-26T15:39:51.893Z,5.30
2019-06-26T15:42:11.803Z,5.50
2019-06-26T15:44:31.810Z,5.05
2019-06-26T15:46:51.835Z,6.03
2019-06-26T15:49:11.816Z,5.72
2019-06-26T15:51:31.843Z,5.42
2019-06-26T15:53:51.759Z,6.28
2019-06-26T15:56:11.870Z,6.47
2019-06-26T15:58:31.900Z,6.35
2019-06-26T16:00:52.196Z,6.10
2019-06-26T16:03:13.151Z,6.58
2019-06-26T16:05:33.024Z,6.47
2019-06-26T16:07:52.918Z,6.33
2019-06-26T16:10:13.326Z,6.40
2019-06-26T16:12:33.272Z,6.60
2019-06-26T16:14:53.252Z,7.00
2019-06-26T16:17:14.771Z,6.00
2019-06-26T16:19:35.463Z,6.47
2019-06-26T16:21:56.744Z,6.70
2019-06-26T16:24:17.019Z,6.22
2019-06-26T16:26:37.203Z,6.85
2019-06-26T16:28:57.270Z,6.92
2019-06-26T16:31:17.604Z,6.75
2019-06-26T16:33:37.847Z,6.40
2019-06-26T16:35:58.946Z,6.57
2019-06-26T16:38:19.078Z,7.08
2019-06-26T16:40:39.135Z,7.05
2019-06-26T16:42:59.095Z,7.03
2019-06-26T16:45:19.147Z,7.20
2019-06-26T16:47:41.042Z,6.20
2019-06-26T16:50:01.036Z,6.93
2019-06-26T16:52:20.948Z,7.28
2019-06-26T16:54:40.857Z,6.80
2019-06-26T16:57:00.829Z,7.30
2019-06-26T16:59:21.414Z,7.70
2019-06-26T17:01:42.134Z,7.05
2019-06-26T17:04:02.140Z,6.95
2019-06-26T17:06:22.736Z,6.58
2019-06-26T17:08:43.013Z,7.03
2019-06-26T17:11:03.416Z,7.93
2019-06-26T17:13:23.648Z,7.43
2019-06-26T17:15:44.172Z,7.20
2019-06-26T17:18:04.476Z,7.47
2019-06-26T17:20:24.438Z,7.50
2019-06-26T17:22:44.454Z,7.37
2019-06-26T17:25:05.513Z,7.58
2019-06-26T17:27:25.577Z,7.35
2019-06-26T17:29:45.633Z,7.35
2019-06-26T17:32:05.690Z,7.62
2019-06-26T17:34:27.292Z,7.78
2019-06-26T17:36:47.924Z,7.80
2019-06-26T17:39:08.141Z,8.38
2019-06-26T17:41:28.159Z,7.53
2019-06-26T17:43:48.190Z,7.80
2019-06-26T17:46:08.258Z,7.80
2019-06-26T17:48:28.208Z,7.95
2019-06-26T17:50:48.193Z,8.35
2019-06-26T17:53:20.986Z,7.83
2019-06-26T17:55:30.464Z,7.85
2019-06-26T17:57:51.023Z,8.30
2019-06-26T18:00:14.114Z,8.45
2019-06-26T18:02:34.212Z,8.53
2019-06-26T18:04:54.188Z,9.40
2019-06-26T18:07:14.139Z,8.05
2019-06-26T18:09:34.064Z,8.30
2019-06-26T18:11:53.933Z,8.60
2019-06-26T18:14:14.348Z,9.03
2019-06-26T18:16:34.586Z,9.03
2019-06-26T18:18:54.825Z,8.00
2019-06-26T18:21:15.085Z,8.60
2019-06-26T18:23:38.164Z,10.67
2019-06-26T18:26:11.858Z,9.33
2019-06-26T18:28:19.195Z,8.33
2019-06-26T18:30:39.518Z,8.27
2019-06-26T18:32:59.752Z,8.27
2019-06-26T18:35:20.206Z,8.70
2019-06-26T18:37:40.775Z,8.43
2019-06-26T18:40:01.017Z,9.00
2019-06-26T18:42:22.307Z,8.43
2019-06-26T18:44:42.458Z,8.80
2019-06-26T18:47:02.689Z,8.87
2019-06-26T18:49:22.953Z,8.33
2019-06-26T18:51:43.184Z,8.87
2019-06-26T18:54:03.554Z,9.33
2019-06-26T18:56:23.841Z,8.93
2019-06-26T18:58:44.675Z,9.70
2019-06-26T19:01:04.969Z,9.63
2019-06-26T19:03:25.297Z,9.13
2019-06-26T19:05:45.464Z,8.40
2019-06-26T19:08:05.756Z,8.87
2019-06-26T19:10:25.973Z,10.33
2019-06-26T19:12:46.214Z,9.87
2019-06-26T19:15:07.006Z,9.57
2019-06-26T19:17:28.123Z,9.63
2019-06-26T19:19:48.321Z,9.63
2019-06-26T19:22:08.357Z,10.20
2019-06-26T19:24:28.696Z,10.07
2019-06-26T19:26:48.982Z,10.30
2019-06-26T19:29:09.455Z,10.57
2019-06-26T19:31:29.751Z,10.77
2019-06-26T19:33:50.058Z,10.53
2019-06-26T19:36:10.270Z,10.93
2019-06-26T19:38:30.536Z,11.87
2019-06-26T19:40:52.446Z,10.83
2019-06-26T19:43:12.692Z,12.07
2019-06-26T19:45:33.104Z,10.70
2019-06-26T19:47:53.511Z,10.87
2019-06-26T19:50:14.165Z,11.07
2019-06-26T19:52:34.522Z,10.83
2019-06-26T19:54:54.937Z,10.97
2019-06-26T19:57:15.254Z,11.20
2019-06-26T19:59:35.594Z,11.67
2019-06-26T20:01:56.015Z,11.37
2019-06-26T20:04:16.250Z,11.43
2019-06-26T20:06:36.491Z,11.70
2019-06-26T20:08:57.749Z,11.80
2019-06-26T20:11:18.056Z,12.20
2019-06-26T20:13:38.263Z,12.67
2019-06-26T20:15:58.585Z,11.37
2019-06-26T20:18:18.926Z,10.57
2019-06-26T20:20:39.308Z,11.63
2019-06-26T20:22:59.680Z,11.47
2019-06-26T20:25:20.019Z,12.03
2019-06-26T20:27:40.549Z,11.83
2019-06-26T20:30:02.053Z,12.17
2019-06-26T20:32:22.501Z,11.80
2019-06-26T20:34:42.873Z,12.20
2019-06-26T20:37:03.217Z,11.43
2019-06-26T20:39:25.433Z,12.63
2019-06-26T20:41:48.106Z,12.83
2019-06-26T20:46:27.080Z,11.73
2019-06-26T20:48:47.150Z,12.07
2019-06-26T20:51:07.315Z,12.78
2019-06-26T20:53:28.804Z,11.68
2019-06-26T20:55:48.788Z,11.97
2019-06-26T20:58:08.774Z,12.05
2019-06-26T21:00:28.834Z,12.47
2019-06-26T21:02:48.803Z,13.08
2019-06-26T21:05:09.922Z,12.28
2019-06-26T21:07:29.897Z,13.25
2019-06-26T21:09:49.864Z,12.98
2019-06-26T21:12:09.788Z,13.08
2019-06-26T21:14:30.035Z,12.83
2019-06-26T21:16:50.331Z,13.40
2019-06-26T21:19:10.594Z,13.40
2019-06-26T21:21:30.875Z,13.60
2019-06-26T21:23:51.162Z,14.13
2019-06-26T21:26:11.364Z,14.23
2019-06-26T21:28:31.620Z,13.97
2019-06-26T21:30:51.884Z,13.70
2019-06-26T21:33:12.149Z,15.00
2019-06-26T21:35:32.327Z,14.03
2019-06-26T21:37:52.688Z,14.40
2019-06-26T21:40:13.775Z,12.73
2019-06-26T21:42:34.043Z,14.00
2019-06-26T21:44:54.234Z,13.97
2019-06-26T21:47:16.023Z,13.87
2019-06-26T21:49:36.471Z,13.33
2019-06-26T21:51:56.785Z,13.70
2019-06-26T21:54:18.306Z,13.97
2019-06-26T21:56:56.504Z,14.10
2019-06-26T21:59:34.610Z,13.60
2019-06-26T22:02:13.019Z,13.80
2019-06-26T22:04:41.460Z,14.07
2019-06-26T22:07:12.406Z,14.77
2019-06-26T22:09:34.288Z,14.80
2019-06-26T22:11:54.609Z,14.80
2019-06-26T22:14:14.962Z,13.80
2019-06-26T22:16:35.446Z,14.57
2019-06-26T22:18:55.817Z,15.00
2019-06-26T22:21:16.042Z,14.30
2019-06-26T22:23:36.411Z,15.03
2019-06-26T22:25:57.043Z,15.27
2019-06-26T22:28:17.315Z,14.33
2019-06-26T22:30:39.642Z,14.23
2019-06-26T22:32:59.585Z,14.70
2019-06-26T22:35:20.797Z,14.47
2019-06-26T22:37:41.174Z,14.57
2019-06-26T22:40:01.749Z,15.70
2019-06-26T22:42:25.035Z,15.07
2019-06-26T22:44:45.233Z,15.43
2019-06-26T22:47:05.433Z,14.63
2019-06-26T22:49:25.830Z,15.33
2019-06-26T22:51:46.089Z,14.97
2019-06-26T22:54:06.345Z,14.83
2019-06-26T22:56:26.945Z,16.00
2019-06-26T22:58:47.193Z,15.23
2019-06-26T23:01:09.022Z,14.50
2019-06-26T23:03:29.376Z,15.40
2019-06-26T23:05:49.818Z,15.80
2019-06-26T23:08:10.096Z,16.20
2019-06-26T23:10:30.438Z,16.63
2019-06-26T23:12:50.762Z,16.20
2019-06-26T23:15:11.347Z,17.00
2019-06-26T23:17:31.693Z,16.50
2019-06-26T23:19:51.876Z,16.73
2019-06-26T23:22:12.169Z,15.87
2019-06-26T23:24:32.562Z,16.30
2019-06-26T23:26:52.753Z,16.20
2019-06-26T23:29:13.053Z,16.20
2019-06-26T23:31:33.304Z,15.90
2019-06-26T23:33:55.279Z,16.07
2019-06-26T23:36:15.347Z,16.60
2019-06-26T23:38:35.301Z,16.77
2019-06-26T23:40:55.403Z,16.12
2019-06-26T23:43:15.434Z,17.80
2019-06-26T23:45:35.704Z,16.43
2019-06-26T23:47:55.965Z,16.27
2019-06-26T23:50:16.213Z,16.53
2019-06-26T23:52:36.556Z,17.77
2019-06-26T23:54:57.124Z,16.33
2019-06-26T23:57:17.382Z,17.07
2019-06-26T23:59:37.647Z,16.33
